sensor_id;sensor_type;location;lat;lon;timestamp;temperature;humidity
13330;DHT22;6734;48.638;8.896;2022-07-21T00:01:51;19.20;99.90
13330;DHT22;6734;48.638;8.896;2022-07-21T00:06:44;19.00;99.90
13330;DHT22;6734;48.638;8.896;2022-07-21T00:09:11;18.70;99.90
13330;DHT22;6734;48.638;8.896;2022-07-21T00:11:38;18.40;99.90
13330;DHT22;6734;48.638;8.896;2022-07-21T00:14:06;18.30;99.90
13330;DHT22;6734;48.638;8.896;2022-07-21T00:16:32;18.30;99.90
13330;DHT22;6734;48.638;8.896;2022-07-21T00:26:16;18.70;99.90
13330;DHT22;6734;48.638;8.896;2022-07-21T00:28:42;18.60;99.90
13330;DHT22;6734;48.638;8.896;2022-07-21T00:33:34;18.20;99.90
13330;DHT22;6734;48.638;8.896;2022-07-21T00:35:59;18.40;99.90
13330;DHT22;6734;48.638;8.896;2022-07-21T00:43:17;18.30;99.90
13330;DHT22;6734;48.638;8.896;2022-07-21T00:45:42;18.20;99.90
13330;DHT22;6734;48.638;8.896;2022-07-21T00:50:34;18.00;99.90
13330;DHT22;6734;48.638;8.896;2022-07-21T00:57:52;17.90;99.90
13330;DHT22;6734;48.638;8.896;2022-07-21T01:00:21;17.90;99.90
13330;DHT22;6734;48.638;8.896;2022-07-21T01:05:15;18.00;99.90
13330;DHT22;6734;48.638;8.896;2022-07-21T01:10:10;18.00;99.90
13330;DHT22;6734;48.638;8.896;2022-07-21T01:12:37;18.00;99.90
13330;DHT22;6734;48.638;8.896;2022-07-21T01:17:29;18.70;99.90
13330;DHT22;6734;48.638;8.896;2022-07-21T01:19:56;18.90;99.90
13330;DHT22;6734;48.638;8.896;2022-07-21T01:22:22;18.90;99.90
13330;DHT22;6734;48.638;8.896;2022-07-21T01:27:13;18.70;99.90
13330;DHT22;6734;48.638;8.896;2022-07-21T01:29:39;18.80;99.90
13330;DHT22;6734;48.638;8.896;2022-07-21T01:34:30;18.40;99.90
13330;DHT22;6734;48.638;8.896;2022-07-21T01:39:22;18.30;99.90
13330;DHT22;6734;48.638;8.896;2022-07-21T01:44:43;18.00;99.90
13330;DHT22;6734;48.638;8.896;2022-07-21T01:47:08;17.80;99.90
13330;DHT22;6734;48.638;8.896;2022-07-21T01:49:34;17.80;99.90
13330;DHT22;6734;48.638;8.896;2022-07-21T01:51:59;17.70;99.90
13330;DHT22;6734;48.638;8.896;2022-07-21T01:56:52;17.80;99.90
13330;DHT22;6734;48.638;8.896;2022-07-21T01:59:17;17.80;99.90
13330;DHT22;6734;48.638;8.896;2022-07-21T02:06:35;18.00;99.90
13330;DHT22;6734;48.638;8.896;2022-07-21T02:09:01;18.10;99.90
13330;DHT22;6734;48.638;8.896;2022-07-21T02:13:53;17.80;99.90
13330;DHT22;6734;48.638;8.896;2022-07-21T02:16:19;17.80;99.90
13330;DHT22;6734;48.638;8.896;2022-07-21T02:35:47;17.60;99.90
13330;DHT22;6734;48.638;8.896;2022-07-21T02:38:13;17.60;99.90
13330;DHT22;6734;48.638;8.896;2022-07-21T02:40:39;17.50;99.90
13330;DHT22;6734;48.638;8.896;2022-07-21T02:43:05;17.70;99.90
13330;DHT22;6734;48.638;8.896;2022-07-21T02:50:33;17.50;99.90
13330;DHT22;6734;48.638;8.896;2022-07-21T02:58:10;17.50;99.90
13330;DHT22;6734;48.638;8.896;2022-07-21T03:00:39;17.50;99.90
13330;DHT22;6734;48.638;8.896;2022-07-21T03:03:05;17.50;99.90
13330;DHT22;6734;48.638;8.896;2022-07-21T03:05:32;17.40;99.90
13330;DHT22;6734;48.638;8.896;2022-07-21T03:12:49;17.60;99.90
13330;DHT22;6734;48.638;8.896;2022-07-21T03:15:15;17.60;99.90
13330;DHT22;6734;48.638;8.896;2022-07-21T03:17:40;17.50;99.90
13330;DHT22;6734;48.638;8.896;2022-07-21T03:22:33;17.60;99.90
13330;DHT22;6734;48.638;8.896;2022-07-21T03:24:59;17.60;99.90
13330;DHT22;6734;48.638;8.896;2022-07-21T03:29:51;17.60;99.90
13330;DHT22;6734;48.638;8.896;2022-07-21T03:34:42;17.70;99.90
13330;DHT22;6734;48.638;8.896;2022-07-21T03:37:10;18.00;99.90
13330;DHT22;6734;48.638;8.896;2022-07-21T03:39:36;17.90;99.90
13330;DHT22;6734;48.638;8.896;2022-07-21T03:42:02;18.00;99.90
13330;DHT22;6734;48.638;8.896;2022-07-21T03:44:28;18.20;99.90
13330;DHT22;6734;48.638;8.896;2022-07-21T03:49:20;18.20;99.90
13330;DHT22;6734;48.638;8.896;2022-07-21T03:51:45;18.40;99.90
13330;DHT22;6734;48.638;8.896;2022-07-21T03:54:11;18.40;99.90
13330;DHT22;6734;48.638;8.896;2022-07-21T03:59:03;18.60;99.90
13330;DHT22;6734;48.638;8.896;2022-07-21T04:11:12;18.60;99.90
13330;DHT22;6734;48.638;8.896;2022-07-21T04:13:38;18.70;99.90
13330;DHT22;6734;48.638;8.896;2022-07-21T04:16:04;18.70;99.90
13330;DHT22;6734;48.638;8.896;2022-07-21T04:20:55;18.40;99.90
13330;DHT22;6734;48.638;8.896;2022-07-21T04:23:21;18.30;99.90
13330;DHT22;6734;48.638;8.896;2022-07-21T04:28:12;18.70;99.90
13330;DHT22;6734;48.638;8.896;2022-07-21T04:30:38;19.10;99.90
13330;DHT22;6734;48.638;8.896;2022-07-21T04:33:04;19.30;99.90
13330;DHT22;6734;48.638;8.896;2022-07-21T04:35:31;19.20;99.90
13330;DHT22;6734;48.638;8.896;2022-07-21T04:37:57;18.70;99.90
13330;DHT22;6734;48.638;8.896;2022-07-21T04:40:23;18.70;99.90
13330;DHT22;6734;48.638;8.896;2022-07-21T04:47:42;18.70;99.90
13330;DHT22;6734;48.638;8.896;2022-07-21T04:50:09;18.90;99.90
13330;DHT22;6734;48.638;8.896;2022-07-21T04:52:35;19.20;99.90
13330;DHT22;6734;48.638;8.896;2022-07-21T04:55:01;19.20;99.90
13330;DHT22;6734;48.638;8.896;2022-07-21T04:57:26;19.40;99.90
13330;DHT22;6734;48.638;8.896;2022-07-21T04:59:52;19.50;99.90
13330;DHT22;6734;48.638;8.896;2022-07-21T05:02:18;19.80;99.90
13330;DHT22;6734;48.638;8.896;2022-07-21T05:04:43;20.00;99.90
13330;DHT22;6734;48.638;8.896;2022-07-21T05:07:09;19.60;99.90
13330;DHT22;6734;48.638;8.896;2022-07-21T05:09:35;19.30;99.90
13330;DHT22;6734;48.638;8.896;2022-07-21T05:14:26;19.00;99.90
13330;DHT22;6734;48.638;8.896;2022-07-21T05:16:52;18.90;99.90
13330;DHT22;6734;48.638;8.896;2022-07-21T05:19:18;18.90;99.90
13330;DHT22;6734;48.638;8.896;2022-07-21T05:21:43;19.20;99.90
13330;DHT22;6734;48.638;8.896;2022-07-21T05:24:10;19.30;99.90
13330;DHT22;6734;48.638;8.896;2022-07-21T05:26:36;19.30;99.90
13330;DHT22;6734;48.638;8.896;2022-07-21T05:29:02;19.50;99.90
13330;DHT22;6734;48.638;8.896;2022-07-21T05:31:28;19.30;99.90
13330;DHT22;6734;48.638;8.896;2022-07-21T05:38:46;18.90;99.90
13330;DHT22;6734;48.638;8.896;2022-07-21T05:41:12;19.20;99.90
13330;DHT22;6734;48.638;8.896;2022-07-21T05:43:38;19.50;99.90
13330;DHT22;6734;48.638;8.896;2022-07-21T05:46:04;19.30;99.90
13330;DHT22;6734;48.638;8.896;2022-07-21T05:48:29;19.50;99.90
13330;DHT22;6734;48.638;8.896;2022-07-21T05:53:21;19.20;99.90
13330;DHT22;6734;48.638;8.896;2022-07-21T05:58:13;19.00;99.90
13330;DHT22;6734;48.638;8.896;2022-07-21T06:00:39;19.10;99.90
13330;DHT22;6734;48.638;8.896;2022-07-21T06:03:05;19.10;99.90
13330;DHT22;6734;48.638;8.896;2022-07-21T06:12:48;19.80;99.90
13330;DHT22;6734;48.638;8.896;2022-07-21T06:15:14;19.90;99.90
13330;DHT22;6734;48.638;8.896;2022-07-21T06:20:08;19.70;99.90
13330;DHT22;6734;48.638;8.896;2022-07-21T06:22:34;19.50;99.90
13330;DHT22;6734;48.638;8.896;2022-07-21T06:25:00;19.50;99.90
13330;DHT22;6734;48.638;8.896;2022-07-21T06:27:25;19.40;99.90
13330;DHT22;6734;48.638;8.896;2022-07-21T06:29:51;19.50;99.90
13330;DHT22;6734;48.638;8.896;2022-07-21T06:32:16;19.50;99.90
13330;DHT22;6734;48.638;8.896;2022-07-21T06:34:42;19.60;99.90
13330;DHT22;6734;48.638;8.896;2022-07-21T06:37:08;19.70;99.90
13330;DHT22;6734;48.638;8.896;2022-07-21T06:39:33;19.80;99.90
13330;DHT22;6734;48.638;8.896;2022-07-21T06:41:59;20.00;99.90
13330;DHT22;6734;48.638;8.896;2022-07-21T06:44:24;20.20;99.90
13330;DHT22;6734;48.638;8.896;2022-07-21T06:46:50;20.10;99.90
13330;DHT22;6734;48.638;8.896;2022-07-21T06:49:16;20.40;99.90
13330;DHT22;6734;48.638;8.896;2022-07-21T06:51:41;20.60;99.90
13330;DHT22;6734;48.638;8.896;2022-07-21T06:54:07;20.70;99.90
13330;DHT22;6734;48.638;8.896;2022-07-21T06:56:33;20.70;99.90
13330;DHT22;6734;48.638;8.896;2022-07-21T06:58:58;20.80;99.90
13330;DHT22;6734;48.638;8.896;2022-07-21T07:03:50;21.10;99.90
13330;DHT22;6734;48.638;8.896;2022-07-21T07:06:15;21.30;99.90
13330;DHT22;6734;48.638;8.896;2022-07-21T07:11:07;21.70;99.90
13330;DHT22;6734;48.638;8.896;2022-07-21T07:13:32;22.00;99.90
13330;DHT22;6734;48.638;8.896;2022-07-21T07:15:58;21.80;99.90
13330;DHT22;6734;48.638;8.896;2022-07-21T07:18:24;21.60;99.90
13330;DHT22;6734;48.638;8.896;2022-07-21T07:20:50;21.20;99.90
13330;DHT22;6734;48.638;8.896;2022-07-21T07:23:17;21.00;99.90
13330;DHT22;6734;48.638;8.896;2022-07-21T07:28:09;21.70;99.90
13330;DHT22;6734;48.638;8.896;2022-07-21T07:30:34;21.70;99.90
13330;DHT22;6734;48.638;8.896;2022-07-21T07:33:00;21.30;99.90
13330;DHT22;6734;48.638;8.896;2022-07-21T07:35:26;21.30;99.90
13330;DHT22;6734;48.638;8.896;2022-07-21T07:37:51;21.30;99.90
13330;DHT22;6734;48.638;8.896;2022-07-21T07:45:11;21.50;99.90
13330;DHT22;6734;48.638;8.896;2022-07-21T07:47:38;21.50;99.90
13330;DHT22;6734;48.638;8.896;2022-07-21T07:50:06;21.80;99.90
13330;DHT22;6734;48.638;8.896;2022-07-21T07:52:32;21.70;99.90
13330;DHT22;6734;48.638;8.896;2022-07-21T07:54:57;22.00;99.90
13330;DHT22;6734;48.638;8.896;2022-07-21T07:59:49;22.20;99.90
13330;DHT22;6734;48.638;8.896;2022-07-21T08:02:15;22.20;99.90
13330;DHT22;6734;48.638;8.896;2022-07-21T08:04:40;21.80;99.90
13330;DHT22;6734;48.638;8.896;2022-07-21T08:07:09;21.60;99.90
13330;DHT22;6734;48.638;8.896;2022-07-21T08:09:34;21.80;99.90
13330;DHT22;6734;48.638;8.896;2022-07-21T08:12:00;21.80;99.90
13330;DHT22;6734;48.638;8.896;2022-07-21T08:14:25;22.10;99.90
13330;DHT22;6734;48.638;8.896;2022-07-21T08:16:51;22.10;99.90
13330;DHT22;6734;48.638;8.896;2022-07-21T08:21:43;22.00;18.20
13330;DHT22;6734;48.638;8.896;2022-07-21T08:24:08;22.00;1.00
13330;DHT22;6734;48.638;8.896;2022-07-21T08:29:00;22.30;36.00
13330;DHT22;6734;48.638;8.896;2022-07-21T08:31:26;22.20;47.10
13330;DHT22;6734;48.638;8.896;2022-07-21T08:33:52;22.10;76.90
13330;DHT22;6734;48.638;8.896;2022-07-21T08:36:18;22.00;50.00
13330;DHT22;6734;48.638;8.896;2022-07-21T08:41:11;21.90;27.00
13330;DHT22;6734;48.638;8.896;2022-07-21T08:43:36;21.90;48.00
13330;DHT22;6734;48.638;8.896;2022-07-21T08:48:29;21.80;22.80
13330;DHT22;6734;48.638;8.896;2022-07-21T08:50:56;22.30;1.00
13330;DHT22;6734;48.638;8.896;2022-07-21T08:53:22;22.20;52.60
13330;DHT22;6734;48.638;8.896;2022-07-21T08:55:48;22.50;66.00
13330;DHT22;6734;48.638;8.896;2022-07-21T08:58:14;22.70;61.20
13330;DHT22;6734;48.638;8.896;2022-07-21T09:05:57;23.20;99.90
13330;DHT22;6734;48.638;8.896;2022-07-21T09:16:10;23.40;99.90
13330;DHT22;6734;48.638;8.896;2022-07-21T09:18:50;23.40;99.90
13330;DHT22;6734;48.638;8.896;2022-07-21T09:26:09;23.40;99.90
13330;DHT22;6734;48.638;8.896;2022-07-21T09:28:35;23.50;99.90
13330;DHT22;6734;48.638;8.896;2022-07-21T09:31:06;24.00;99.90
13330;DHT22;6734;48.638;8.896;2022-07-21T09:41:10;23.80;99.90
13330;DHT22;6734;48.638;8.896;2022-07-21T09:43:38;24.10;99.90
13330;DHT22;6734;48.638;8.896;2022-07-21T09:46:09;24.50;99.90
13330;DHT22;6734;48.638;8.896;2022-07-21T09:48:37;24.50;99.90
13330;DHT22;6734;48.638;8.896;2022-07-21T09:53:58;24.00;99.90
13330;DHT22;6734;48.638;8.896;2022-07-21T09:56:28;23.70;99.90
13330;DHT22;6734;48.638;8.896;2022-07-21T10:01:21;23.50;99.90
13330;DHT22;6734;48.638;8.896;2022-07-21T10:03:49;23.70;99.90
13330;DHT22;6734;48.638;8.896;2022-07-21T10:08:42;24.00;99.90
13330;DHT22;6734;48.638;8.896;2022-07-21T10:11:09;24.20;99.90
13330;DHT22;6734;48.638;8.896;2022-07-21T10:13:35;24.10;99.90
13330;DHT22;6734;48.638;8.896;2022-07-21T10:16:01;24.30;99.90
13330;DHT22;6734;48.638;8.896;2022-07-21T10:23:59;24.60;99.90
13330;DHT22;6734;48.638;8.896;2022-07-21T10:26:24;24.60;99.90
13330;DHT22;6734;48.638;8.896;2022-07-21T10:28:50;24.60;99.90
13330;DHT22;6734;48.638;8.896;2022-07-21T10:31:21;24.70;99.90
13330;DHT22;6734;48.638;8.896;2022-07-21T10:47:06;24.60;99.90
13330;DHT22;6734;48.638;8.896;2022-07-21T11:03:21;25.30;99.90
13330;DHT22;6734;48.638;8.896;2022-07-21T11:06:22;25.60;99.90
13330;DHT22;6734;48.638;8.896;2022-07-21T11:14:09;25.60;99.90
13330;DHT22;6734;48.638;8.896;2022-07-21T11:29:35;26.00;99.90
13330;DHT22;6734;48.638;8.896;2022-07-21T11:32:02;26.20;99.90
13330;DHT22;6734;48.638;8.896;2022-07-21T11:34:43;26.00;99.90
13330;DHT22;6734;48.638;8.896;2022-07-21T11:37:11;25.70;99.90
13330;DHT22;6734;48.638;8.896;2022-07-21T11:39:37;26.10;99.90
13330;DHT22;6734;48.638;8.896;2022-07-21T11:42:08;27.20;99.90
13330;DHT22;6734;48.638;8.896;2022-07-21T11:44:35;28.10;99.90
13330;DHT22;6734;48.638;8.896;2022-07-21T11:47:02;28.50;99.90
13330;DHT22;6734;48.638;8.896;2022-07-21T11:49:28;28.90;99.90
13330;DHT22;6734;48.638;8.896;2022-07-21T11:56:55;29.60;99.90
13330;DHT22;6734;48.638;8.896;2022-07-21T11:59:21;29.50;99.90
13330;DHT22;6734;48.638;8.896;2022-07-21T12:02:09;29.40;99.90
13330;DHT22;6734;48.638;8.896;2022-07-21T12:09:45;28.40;99.90
13330;DHT22;6734;48.638;8.896;2022-07-21T12:12:12;27.80;99.90
13330;DHT22;6734;48.638;8.896;2022-07-21T12:14:41;27.00;99.90
13330;DHT22;6734;48.638;8.896;2022-07-21T12:17:07;27.50;99.90
13330;DHT22;6734;48.638;8.896;2022-07-21T12:19:33;28.80;99.90
13330;DHT22;6734;48.638;8.896;2022-07-21T12:24:55;30.10;99.90
13330;DHT22;6734;48.638;8.896;2022-07-21T12:27:21;29.70;99.90
13330;DHT22;6734;48.638;8.896;2022-07-21T12:29:49;29.00;99.90
13330;DHT22;6734;48.638;8.896;2022-07-21T12:32:48;28.90;99.90
13330;DHT22;6734;48.638;8.896;2022-07-21T12:35:22;29.60;99.90
13330;DHT22;6734;48.638;8.896;2022-07-21T12:40:35;31.90;99.90
13330;DHT22;6734;48.638;8.896;2022-07-21T12:43:06;32.90;99.90
13330;DHT22;6734;48.638;8.896;2022-07-21T12:48:11;32.10;99.90
13330;DHT22;6734;48.638;8.896;2022-07-21T12:50:38;30.80;99.90
13330;DHT22;6734;48.638;8.896;2022-07-21T12:55:30;29.00;99.90
13330;DHT22;6734;48.638;8.896;2022-07-21T12:57:56;28.80;99.90
13330;DHT22;6734;48.638;8.896;2022-07-21T13:00:21;29.90;99.90
13330;DHT22;6734;48.638;8.896;2022-07-21T13:02:48;30.40;99.90
13330;DHT22;6734;48.638;8.896;2022-07-21T13:07:40;31.00;99.90
13330;DHT22;6734;48.638;8.896;2022-07-21T13:10:06;31.50;99.90
13330;DHT22;6734;48.638;8.896;2022-07-21T13:12:32;31.50;99.90
13330;DHT22;6734;48.638;8.896;2022-07-21T13:14:57;31.90;99.90
13330;DHT22;6734;48.638;8.896;2022-07-21T13:19:49;32.70;99.90
13330;DHT22;6734;48.638;8.896;2022-07-21T13:22:14;31.60;99.90
13330;DHT22;6734;48.638;8.896;2022-07-21T13:24:40;31.90;99.90
13330;DHT22;6734;48.638;8.896;2022-07-21T13:27:05;31.70;99.90
13330;DHT22;6734;48.638;8.896;2022-07-21T13:29:31;31.50;99.90
13330;DHT22;6734;48.638;8.896;2022-07-21T13:31:57;32.00;99.90
13330;DHT22;6734;48.638;8.896;2022-07-21T13:34:22;32.50;99.90
13330;DHT22;6734;48.638;8.896;2022-07-21T13:39:14;32.20;1.00
13330;DHT22;6734;48.638;8.896;2022-07-21T13:41:40;32.00;1.00
13330;DHT22;6734;48.638;8.896;2022-07-21T13:46:32;31.20;1.00
13330;DHT22;6734;48.638;8.896;2022-07-21T13:48:57;31.60;1.00
13330;DHT22;6734;48.638;8.896;2022-07-21T13:51:23;31.20;1.00
13330;DHT22;6734;48.638;8.896;2022-07-21T13:53:51;30.30;1.00
13330;DHT22;6734;48.638;8.896;2022-07-21T13:56:18;29.10;1.00
13330;DHT22;6734;48.638;8.896;2022-07-21T13:58:44;29.10;1.00
13330;DHT22;6734;48.638;8.896;2022-07-21T14:01:11;29.50;1.00
13330;DHT22;6734;48.638;8.896;2022-07-21T14:03:37;30.00;1.00
13330;DHT22;6734;48.638;8.896;2022-07-21T14:06:03;31.50;99.90
13330;DHT22;6734;48.638;8.896;2022-07-21T14:08:28;32.40;99.90
13330;DHT22;6734;48.638;8.896;2022-07-21T14:10:54;33.80;99.90
13330;DHT22;6734;48.638;8.896;2022-07-21T14:13:20;33.80;99.90
13330;DHT22;6734;48.638;8.896;2022-07-21T14:15:45;32.30;1.00
13330;DHT22;6734;48.638;8.896;2022-07-21T14:20:38;29.50;99.90
13330;DHT22;6734;48.638;8.896;2022-07-21T14:30:25;29.10;99.90
13330;DHT22;6734;48.638;8.896;2022-07-21T14:35:17;29.40;99.90
13330;DHT22;6734;48.638;8.896;2022-07-21T14:37:46;29.30;99.90
13330;DHT22;6734;48.638;8.896;2022-07-21T14:40:13;28.80;99.90
13330;DHT22;6734;48.638;8.896;2022-07-21T14:42:39;28.60;99.90
13330;DHT22;6734;48.638;8.896;2022-07-21T14:45:06;29.70;99.90
13330;DHT22;6734;48.638;8.896;2022-07-21T14:47:32;30.30;99.90
13330;DHT22;6734;48.638;8.896;2022-07-21T14:52:25;29.60;99.90
13330;DHT22;6734;48.638;8.896;2022-07-21T14:54:50;28.90;99.90
13330;DHT22;6734;48.638;8.896;2022-07-21T14:59:42;28.50;99.90
13330;DHT22;6734;48.638;8.896;2022-07-21T15:02:08;29.10;99.90
13330;DHT22;6734;48.638;8.896;2022-07-21T15:04:34;30.40;99.90
13330;DHT22;6734;48.638;8.896;2022-07-21T15:06:59;30.40;99.90
13330;DHT22;6734;48.638;8.896;2022-07-21T15:09:25;31.50;99.90
13330;DHT22;6734;48.638;8.896;2022-07-21T15:11:51;31.80;99.90
13330;DHT22;6734;48.638;8.896;2022-07-21T15:14:16;31.10;99.90
13330;DHT22;6734;48.638;8.896;2022-07-21T15:16:43;30.60;99.90
13330;DHT22;6734;48.638;8.896;2022-07-21T15:19:08;30.40;99.90
13330;DHT22;6734;48.638;8.896;2022-07-21T15:21:35;29.90;99.90
13330;DHT22;6734;48.638;8.896;2022-07-21T15:24:01;30.60;99.90
13330;DHT22;6734;48.638;8.896;2022-07-21T15:26:26;30.80;99.90
13330;DHT22;6734;48.638;8.896;2022-07-21T15:28:52;30.90;99.90
13330;DHT22;6734;48.638;8.896;2022-07-21T15:31:18;30.90;99.90
13330;DHT22;6734;48.638;8.896;2022-07-21T15:33:43;31.00;99.90
13330;DHT22;6734;48.638;8.896;2022-07-21T15:36:09;31.90;99.90
13330;DHT22;6734;48.638;8.896;2022-07-21T15:38:35;30.90;99.90
13330;DHT22;6734;48.638;8.896;2022-07-21T15:41:01;29.80;99.90
13330;DHT22;6734;48.638;8.896;2022-07-21T15:43:30;29.70;99.90
13330;DHT22;6734;48.638;8.896;2022-07-21T15:45:56;30.50;99.90
13330;DHT22;6734;48.638;8.896;2022-07-21T15:55:39;31.10;99.90
13330;DHT22;6734;48.638;8.896;2022-07-21T15:58:05;31.20;99.90
13330;DHT22;6734;48.638;8.896;2022-07-21T16:00:31;31.50;99.90
13330;DHT22;6734;48.638;8.896;2022-07-21T16:02:56;32.20;99.90
13330;DHT22;6734;48.638;8.896;2022-07-21T16:05:24;32.50;99.90
13330;DHT22;6734;48.638;8.896;2022-07-21T16:07:51;32.40;1.00
13330;DHT22;6734;48.638;8.896;2022-07-21T16:10:18;32.90;1.00
13330;DHT22;6734;48.638;8.896;2022-07-21T16:12:44;33.30;1.00
13330;DHT22;6734;48.638;8.896;2022-07-21T16:15:11;34.70;1.00
13330;DHT22;6734;48.638;8.896;2022-07-21T16:17:37;34.80;71.90
13330;DHT22;6734;48.638;8.896;2022-07-21T16:20:05;34.70;99.90
13330;DHT22;6734;48.638;8.896;2022-07-21T16:22:32;34.40;99.90
13330;DHT22;6734;48.638;8.896;2022-07-21T16:24:58;34.60;76.40
13330;DHT22;6734;48.638;8.896;2022-07-21T16:27:24;34.50;99.90
13330;DHT22;6734;48.638;8.896;2022-07-21T16:29:49;34.50;99.90
13330;DHT22;6734;48.638;8.896;2022-07-21T16:37:07;34.90;1.00
13330;DHT22;6734;48.638;8.896;2022-07-21T16:42:00;35.40;99.90
13330;DHT22;6734;48.638;8.896;2022-07-21T16:44:25;34.30;99.90
13330;DHT22;6734;48.638;8.896;2022-07-21T16:51:44;34.00;99.90
13330;DHT22;6734;48.638;8.896;2022-07-21T16:54:10;33.00;99.90
13330;DHT22;6734;48.638;8.896;2022-07-21T16:56:36;32.90;99.90
13330;DHT22;6734;48.638;8.896;2022-07-21T16:59:03;33.50;1.00
13330;DHT22;6734;48.638;8.896;2022-07-21T17:01:28;33.70;1.00
13330;DHT22;6734;48.638;8.896;2022-07-21T17:03:54;33.90;99.90
13330;DHT22;6734;48.638;8.896;2022-07-21T17:08:46;33.30;1.00
13330;DHT22;6734;48.638;8.896;2022-07-21T17:13:38;32.80;1.00
13330;DHT22;6734;48.638;8.896;2022-07-21T17:18:30;32.80;1.00
13330;DHT22;6734;48.638;8.896;2022-07-21T17:23:22;32.30;1.00
13330;DHT22;6734;48.638;8.896;2022-07-21T17:25:49;32.00;1.00
13330;DHT22;6734;48.638;8.896;2022-07-21T17:28:16;32.30;1.00
13330;DHT22;6734;48.638;8.896;2022-07-21T17:30:42;32.90;1.00
13330;DHT22;6734;48.638;8.896;2022-07-21T17:33:08;32.90;1.00
13330;DHT22;6734;48.638;8.896;2022-07-21T17:35:34;32.70;1.00
13330;DHT22;6734;48.638;8.896;2022-07-21T17:37:59;31.90;1.00
13330;DHT22;6734;48.638;8.896;2022-07-21T17:40:25;31.40;1.00
13330;DHT22;6734;48.638;8.896;2022-07-21T17:45:17;30.60;1.00
13330;DHT22;6734;48.638;8.896;2022-07-21T17:50:10;30.30;99.90
13330;DHT22;6734;48.638;8.896;2022-07-21T17:52:36;30.30;99.90
13330;DHT22;6734;48.638;8.896;2022-07-21T17:55:02;30.40;99.90
13330;DHT22;6734;48.638;8.896;2022-07-21T17:57:28;30.70;99.90
13330;DHT22;6734;48.638;8.896;2022-07-21T18:00:12;30.70;99.90
13330;DHT22;6734;48.638;8.896;2022-07-21T18:02:38;30.60;99.90
13330;DHT22;6734;48.638;8.896;2022-07-21T18:05:04;30.10;99.90
13330;DHT22;6734;48.638;8.896;2022-07-21T18:07:29;30.50;99.90
13330;DHT22;6734;48.638;8.896;2022-07-21T18:09:55;30.30;99.90
13330;DHT22;6734;48.638;8.896;2022-07-21T18:14:48;30.10;99.90
13330;DHT22;6734;48.638;8.896;2022-07-21T18:17:14;29.60;99.90
13330;DHT22;6734;48.638;8.896;2022-07-21T18:22:06;28.70;99.90
13330;DHT22;6734;48.638;8.896;2022-07-21T18:24:33;28.20;99.90
13330;DHT22;6734;48.638;8.896;2022-07-21T18:36:44;26.90;99.90
13330;DHT22;6734;48.638;8.896;2022-07-21T18:39:10;26.70;99.90
13330;DHT22;6734;48.638;8.896;2022-07-21T18:41:36;26.60;99.90
13330;DHT22;6734;48.638;8.896;2022-07-21T18:46:28;26.30;99.90
13330;DHT22;6734;48.638;8.896;2022-07-21T18:48:54;25.90;99.90
13330;DHT22;6734;48.638;8.896;2022-07-21T18:51:20;25.80;99.90
13330;DHT22;6734;48.638;8.896;2022-07-21T18:56:11;25.60;99.90
13330;DHT22;6734;48.638;8.896;2022-07-21T18:58:38;25.60;99.90
13330;DHT22;6734;48.638;8.896;2022-07-21T19:01:03;25.40;99.90
13330;DHT22;6734;48.638;8.896;2022-07-21T19:03:30;25.30;99.90
13330;DHT22;6734;48.638;8.896;2022-07-21T19:08:23;25.00;99.90
13330;DHT22;6734;48.638;8.896;2022-07-21T19:10:48;24.80;99.90
13330;DHT22;6734;48.638;8.896;2022-07-21T19:13:14;24.60;99.90
13330;DHT22;6734;48.638;8.896;2022-07-21T19:15:40;24.50;99.90
13330;DHT22;6734;48.638;8.896;2022-07-21T19:18:05;24.40;99.90
13330;DHT22;6734;48.638;8.896;2022-07-21T19:20:31;24.50;99.90
13330;DHT22;6734;48.638;8.896;2022-07-21T19:22:56;24.40;99.90
13330;DHT22;6734;48.638;8.896;2022-07-21T19:25:22;24.20;99.90
13330;DHT22;6734;48.638;8.896;2022-07-21T19:27:48;24.10;99.90
13330;DHT22;6734;48.638;8.896;2022-07-21T19:37:33;24.00;99.90
13330;DHT22;6734;48.638;8.896;2022-07-21T19:39:59;23.70;99.90
13330;DHT22;6734;48.638;8.896;2022-07-21T19:42:24;23.60;99.90
13330;DHT22;6734;48.638;8.896;2022-07-21T19:44:51;23.60;99.90
13330;DHT22;6734;48.638;8.896;2022-07-21T19:47:17;23.50;99.90
13330;DHT22;6734;48.638;8.896;2022-07-21T19:49:43;23.40;99.90
13330;DHT22;6734;48.638;8.896;2022-07-21T19:54:34;22.90;99.90
13330;DHT22;6734;48.638;8.896;2022-07-21T19:59:26;22.90;99.90
13330;DHT22;6734;48.638;8.896;2022-07-21T20:06:46;22.10;99.90
13330;DHT22;6734;48.638;8.896;2022-07-21T20:09:12;22.10;99.90
13330;DHT22;6734;48.638;8.896;2022-07-21T20:14:04;22.20;99.90
13330;DHT22;6734;48.638;8.896;2022-07-21T20:16:31;22.00;99.90
13330;DHT22;6734;48.638;8.896;2022-07-21T20:18:58;21.90;99.90
13330;DHT22;6734;48.638;8.896;2022-07-21T20:21:24;21.60;99.90
13330;DHT22;6734;48.638;8.896;2022-07-21T20:26:16;21.60;99.90
13330;DHT22;6734;48.638;8.896;2022-07-21T20:28:42;21.50;99.90
13330;DHT22;6734;48.638;8.896;2022-07-21T20:31:08;21.50;99.90
13330;DHT22;6734;48.638;8.896;2022-07-21T20:33:33;21.50;99.90
13330;DHT22;6734;48.638;8.896;2022-07-21T20:35:59;21.50;99.90
13330;DHT22;6734;48.638;8.896;2022-07-21T20:40:51;21.50;99.90
13330;DHT22;6734;48.638;8.896;2022-07-21T20:43:16;21.60;99.90
13330;DHT22;6734;48.638;8.896;2022-07-21T20:45:42;21.60;99.90
13330;DHT22;6734;48.638;8.896;2022-07-21T20:48:08;21.40;99.90
13330;DHT22;6734;48.638;8.896;2022-07-21T20:50:34;21.10;99.90
13330;DHT22;6734;48.638;8.896;2022-07-21T20:55:25;21.00;99.90
13330;DHT22;6734;48.638;8.896;2022-07-21T21:00:18;20.50;99.90
13330;DHT22;6734;48.638;8.896;2022-07-21T21:02:44;20.80;99.90
13330;DHT22;6734;48.638;8.896;2022-07-21T21:05:10;20.60;99.90
13330;DHT22;6734;48.638;8.896;2022-07-21T21:10:03;20.20;99.90
13330;DHT22;6734;48.638;8.896;2022-07-21T21:12:29;20.50;99.90
13330;DHT22;6734;48.638;8.896;2022-07-21T21:14:55;20.40;99.90
13330;DHT22;6734;48.638;8.896;2022-07-21T21:17:20;20.20;99.90
13330;DHT22;6734;48.638;8.896;2022-07-21T21:19:46;20.40;99.90
13330;DHT22;6734;48.638;8.896;2022-07-21T21:22:12;20.20;99.90
13330;DHT22;6734;48.638;8.896;2022-07-21T21:24:37;20.30;99.90
13330;DHT22;6734;48.638;8.896;2022-07-21T21:27:03;20.20;99.90
13330;DHT22;6734;48.638;8.896;2022-07-21T21:29:30;20.50;99.90
13330;DHT22;6734;48.638;8.896;2022-07-21T21:31:56;20.30;99.90
13330;DHT22;6734;48.638;8.896;2022-07-21T21:34:21;20.30;99.90
13330;DHT22;6734;48.638;8.896;2022-07-21T21:39:13;20.10;99.90
13330;DHT22;6734;48.638;8.896;2022-07-21T21:44:04;20.40;99.90
13330;DHT22;6734;48.638;8.896;2022-07-21T21:48:56;19.90;99.90
13330;DHT22;6734;48.638;8.896;2022-07-21T21:51:22;19.80;99.90
13330;DHT22;6734;48.638;8.896;2022-07-21T21:58:40;20.10;99.90
13330;DHT22;6734;48.638;8.896;2022-07-21T22:01:05;19.90;99.90
13330;DHT22;6734;48.638;8.896;2022-07-21T22:03:31;19.70;99.90
13330;DHT22;6734;48.638;8.896;2022-07-21T22:05:57;19.40;99.90
13330;DHT22;6734;48.638;8.896;2022-07-21T22:10:48;19.60;99.90
13330;DHT22;6734;48.638;8.896;2022-07-21T22:20:32;19.10;99.90
13330;DHT22;6734;48.638;8.896;2022-07-21T22:22:58;19.20;99.90
13330;DHT22;6734;48.638;8.896;2022-07-21T22:30:15;19.20;99.90